Time;durP1;ratioP1;P1;durP2;ratioP2;P2;SDS_P1;SDS_P2;PMS_P1;PMS_P2;Temp;Humidity;BMP_temperature;BMP_pressure;BME280_temperature;BME280_humidity;BME280_pressure;Samples;Min_cycle;Max_cycle;Signal;HPM_P1;HPM_P2
2021/12/16 00:09:30;;;;;;;17.52;13.45;;;;;;;6.16;45.99;102368.16;5010015;28;20411;-67
2021/12/16 00:34:01;;;;;;;23.15;17.30;;;;;;;5.69;47.51;102383.00;5070661;28;20900;-66
2021/12/16 00:36:29;;;;;;;23.20;15.60;;;;;;;5.73;47.40;102390.72;5070643;28;20414;-67
2021/12/16 00:38:56;;;;;;;24.50;18.50;;;;;;;5.77;47.37;102389.72;5071337;28;20931;-67
2021/12/16 00:41:23;;;;;;;20.65;15.57;;;;;;;5.78;47.58;102391.44;5071607;28;20486;-66
2021/12/16 00:43:55;;;;;;;17.67;13.67;;;;;;;5.75;47.57;102386.28;5071050;28;21022;-66
2021/12/16 00:46:57;;;;;;;18.58;13.40;;;;;;;5.67;47.71;102382.22;5071149;28;20418;-66
2021/12/16 00:49:37;;;;;;;17.75;13.35;;;;;;;5.74;47.54;102384.56;5071715;28;20525;-66
2021/12/16 00:55:00;;;;;;;17.88;12.70;;;;;;;5.68;47.69;102384.78;5071056;28;20421;-66
2021/12/16 00:57:27;;;;;;;17.83;12.88;;;;;;;5.76;47.41;102387.16;5071160;28;20468;-68
2021/12/16 00:59:55;;;;;;;17.13;12.90;;;;;;;5.61;47.98;102386.75;5071170;28;20488;-67
2021/12/16 01:02:43;;;;;;;18.45;13.88;;;;;;;5.69;47.90;102388.28;5070805;28;20433;-66
2021/12/16 01:35:47;;;;;;;21.15;15.25;;;;;;;5.39;48.80;102376.16;5055142;28;20440;-66
2021/12/16 01:38:54;;;;;;;22.48;15.85;;;;;;;5.27;48.97;102370.44;5069471;28;20407;-66
2021/12/16 01:42:02;;;;;;;22.77;15.88;;;;;;;5.34;49.00;102372.81;5069916;28;20750;-66
2021/12/16 01:50:03;;;;;;;23.63;16.57;;;;;;;5.36;48.93;102357.84;5031194;28;20410;-66
2021/12/16 01:55:34;;;;;;;24.23;16.80;;;;;;;5.31;49.24;102361.53;5089049;27;20402;-67
2021/12/16 01:58:12;;;;;;;23.48;17.23;;;;;;;5.23;49.51;102353.91;5084372;28;20406;-67
2021/12/16 02:00:54;;;;;;;22.60;16.90;;;;;;;5.28;49.30;102354.63;5080919;28;20908;-67
2021/12/16 02:03:26;;;;;;;23.75;17.20;;;;;;;5.37;49.20;102351.69;5085357;28;20946;-67
2021/12/16 02:06:02;;;;;;;23.27;16.98;;;;;;;5.30;49.41;102346.69;5076416;28;20476;-67
2021/12/16 02:08:33;;;;;;;23.17;16.95;;;;;;;5.28;49.55;102349.38;5079751;28;20428;-67
2021/12/16 02:36:36;;;;;;;24.47;17.57;;;;;;;5.19;50.09;102354.94;5080106;28;20441;-67
2021/12/16 02:39:09;;;;;;;24.23;17.25;;;;;;;5.21;50.14;102345.22;5077522;28;20425;-68
2021/12/16 02:41:39;;;;;;;22.75;16.60;;;;;;;5.15;50.23;102348.06;5075740;28;20413;-67
2021/12/16 02:44:19;;;;;;;23.52;17.55;;;;;;;5.18;50.32;102343.56;5069501;28;20428;-67
2021/12/16 02:49:44;;;;;;;26.05;18.10;;;;;;;5.16;50.41;102360.31;5069955;28;20410;-67
2021/12/16 02:52:12;;;;;;;24.93;18.40;;;;;;;5.07;50.74;102355.34;5076054;28;20418;-69
2021/12/16 02:54:41;;;;;;;28.63;19.88;;;;;;;5.11;50.71;102364.84;5079011;28;20510;-66
2021/12/16 02:57:08;;;;;;;29.27;20.63;;;;;;;5.11;50.67;102359.59;5081743;28;20410;-67
2021/12/16 02:59:36;;;;;;;26.50;19.75;;;;;;;5.13;50.61;102361.28;5081844;28;20410;-67
2021/12/16 03:02:08;;;;;;;29.30;21.20;;;;;;;5.06;51.11;102361.53;5082058;28;20859;-67
2021/12/16 03:04:37;;;;;;;26.30;19.52;;;;;;;5.10;50.74;102360.50;5078464;28;20416;-67
2021/12/16 03:07:06;;;;;;;94.88;58.50;;;;;;;5.13;50.87;102368.28;5068447;28;20415;-66
2021/12/16 03:12:42;;;;;;;108.13;99.18;;;;;;;5.11;50.88;102368.34;5050654;28;20418;-67
2021/12/16 03:15:20;;;;;;;27.70;24.67;;;;;;;5.11;50.96;102364.84;5064552;28;20418;-67
2021/12/16 03:17:55;;;;;;;26.88;20.15;;;;;;;5.14;50.71;102356.88;5064274;28;20414;-67
2021/12/16 03:20:32;;;;;;;27.45;23.45;;;;;;;5.12;50.96;102359.53;5067701;28;20421;-67
2021/12/16 03:23:13;;;;;;;26.67;19.27;;;;;;;5.18;50.82;102355.84;5061347;28;20415;-67
2021/12/16 03:25:54;;;;;;;25.75;19.73;;;;;;;5.17;50.79;102359.38;5060670;28;20911;-67
2021/12/16 03:28:51;;;;;;;25.88;19.48;;;;;;;5.15;50.93;102358.56;5067567;28;20410;-66
2021/12/16 03:31:39;;;;;;;27.83;22.75;;;;;;;5.09;50.99;102357.03;5063466;28;20418;-67
2021/12/16 03:34:23;;;;;;;26.00;18.58;;;;;;;5.27;50.82;102350.31;5067098;28;20426;-67
2021/12/16 03:37:13;;;;;;;25.48;18.90;;;;;;;5.22;50.83;102354.84;5067314;28;20424;-67
2021/12/16 03:39:42;;;;;;;28.13;21.73;;;;;;;5.20;50.84;102356.66;5068815;28;20479;-67
2021/12/16 03:42:09;;;;;;;27.73;19.60;;;;;;;5.20;50.84;102354.03;5068611;28;20437;-67
2021/12/16 03:44:51;;;;;;;29.77;21.35;;;;;;;5.22;50.81;102352.22;5065403;28;20411;-67
2021/12/16 03:47:22;;;;;;;27.63;19.73;;;;;;;5.20;50.82;102347.00;5063279;28;20419;-67
2021/12/16 03:49:50;;;;;;;28.08;20.50;;;;;;;5.20;50.88;102343.53;5068269;28;20403;-67
2021/12/16 03:52:17;;;;;;;27.20;21.60;;;;;;;5.20;50.89;102346.16;5062945;28;20912;-67
2021/12/16 03:54:49;;;;;;;28.30;20.33;;;;;;;5.17;50.89;102347.13;5066111;28;20424;-66
2021/12/16 03:57:19;;;;;;;29.98;22.40;;;;;;;5.10;51.05;102342.97;5068241;28;20855;-67
2021/12/16 03:59:48;;;;;;;27.08;21.55;;;;;;;5.04;51.21;102342.34;5066234;28;20490;-67
2021/12/16 04:02:20;;;;;;;28.00;22.50;;;;;;;5.14;50.96;102346.38;5066877;28;20411;-67
2021/12/16 04:04:51;;;;;;;33.45;29.35;;;;;;;5.11;51.07;102352.59;5063932;28;20446;-66
2021/12/16 04:07:18;;;;;;;28.67;21.88;;;;;;;4.99;51.25;102350.38;5068381;28;20506;-68
2021/12/16 04:09:45;;;;;;;29.27;23.73;;;;;;;5.12;51.04;102346.41;5067796;28;20773;-67
2021/12/16 04:12:18;;;;;;;28.97;21.63;;;;;;;5.05;51.15;102346.66;5067904;28;20773;-67
2021/12/16 04:14:48;;;;;;;28.70;20.73;;;;;;;5.08;51.22;102357.09;5063016;28;20514;-67
2021/12/16 04:17:15;;;;;;;29.85;22.42;;;;;;;5.10;51.16;102353.47;5066824;28;20784;-67
2021/12/16 04:19:42;;;;;;;30.80;23.20;;;;;;;5.04;50.97;102355.47;5068068;28;20510;-67
2021/12/16 04:22:15;;;;;;;30.77;24.83;;;;;;;4.92;51.64;102348.84;5068257;28;20510;-67
2021/12/16 04:24:44;;;;;;;33.72;27.83;;;;;;;4.94;51.52;102358.38;5059346;28;20467;-66
2021/12/16 04:27:11;;;;;;;30.02;21.50;;;;;;;4.98;51.31;102349.50;5063729;28;20416;-66
2021/12/16 04:29:39;;;;;;;31.67;24.10;;;;;;;4.96;51.60;102345.22;5063307;28;20474;-67
2021/12/16 04:32:08;;;;;;;27.45;20.25;;;;;;;5.02;51.36;102347.63;5059372;28;20411;-67
2021/12/16 04:34:36;;;;;;;30.60;25.45;;;;;;;4.96;51.34;102345.22;5063309;28;20423;-67
2021/12/16 04:37:04;;;;;;;26.70;19.80;;;;;;;4.95;51.45;102346.13;5066965;28;20448;-66
2021/12/16 04:39:33;;;;;;;28.77;22.67;;;;;;;4.97;51.44;102346.94;5067958;28;20418;-67
2021/12/16 04:42:01;;;;;;;31.23;23.27;;;;;;;5.05;51.10;102350.16;5064873;28;20494;-67
2021/12/16 04:44:29;;;;;;;40.23;29.60;;;;;;;5.04;51.86;102339.72;5065011;28;20501;-67
2021/12/16 04:46:57;;;;;;;42.72;29.73;;;;;;;5.07;51.74;102348.34;5059247;28;20411;-67
2021/12/16 04:49:27;;;;;;;43.40;30.52;;;;;;;5.16;51.55;102350.66;5059232;28;20423;-67
2021/12/16 04:51:58;;;;;;;38.80;26.03;;;;;;;5.18;51.33;102356.72;5066523;28;20490;-67
2021/12/16 04:54:29;;;;;;;38.60;23.70;;;;;;;5.18;50.90;102351.47;5066135;28;20509;-67
2021/12/16 04:56:58;;;;;;;33.63;22.52;;;;;;;5.19;50.96;102357.56;5062194;28;20472;-66
2021/12/16 04:59:27;;;;;;;35.22;25.80;;;;;;;5.16;50.90;102352.44;5068905;28;20498;-67
2021/12/16 05:01:57;;;;;;;38.78;26.90;;;;;;;5.12;51.10;102356.06;5061628;28;20425;-67
2021/12/16 05:04:25;;;;;;;43.35;31.33;;;;;;;5.20;50.57;102351.41;5068960;28;20912;-67
2021/12/16 05:06:53;;;;;;;44.08;31.60;;;;;;;5.18;51.09;102347.97;5065785;28;20964;-67
2021/12/16 05:09:54;;;;;;;41.63;31.35;;;;;;;5.11;51.03;102352.59;5067288;28;20490;-67
2021/12/16 05:12:16;;;;;;;59.40;50.90;;;;;;;5.01;51.20;102348.56;5067466;28;20438;-67
2021/12/16 05:14:45;;;;;;;42.17;32.22;;;;;;;5.04;51.33;102350.22;5067363;28;20422;-67
2021/12/16 05:17:23;;;;;;;42.70;31.55;;;;;;;5.01;51.22;102344.16;5066458;28;20462;-68
2021/12/16 05:19:53;;;;;;;77.65;56.95;;;;;;;4.92;51.48;102348.84;5064720;28;20888;-67
2021/12/16 05:25:09;;;;;;;68.30;50.80;;;;;;;4.99;51.42;102340.72;5049576;28;20909;-71
2021/12/16 05:27:37;;;;;;;59.17;45.85;;;;;;;4.95;51.49;102343.50;5058014;28;20414;-66
2021/12/16 05:30:04;;;;;;;47.40;34.92;;;;;;;5.00;51.31;102338.94;5056971;28;20421;-67
2021/12/16 05:32:31;;;;;;;46.05;37.38;;;;;;;4.94;51.28;102341.78;5059024;28;20996;-66
2021/12/16 05:35:00;;;;;;;43.30;33.50;;;;;;;4.88;51.65;102341.97;5059979;28;20426;-66
2021/12/16 05:37:27;;;;;;;38.88;30.70;;;;;;;5.00;51.44;102349.44;5060655;28;20491;-66
2021/12/16 05:39:54;;;;;;;46.78;41.72;;;;;;;4.98;51.78;102344.25;5059069;28;20917;-67
2021/12/16 05:42:21;;;;;;;37.55;28.85;;;;;;;5.04;51.21;102343.19;5059386;28;20506;-67
2021/12/16 05:44:48;;;;;;;46.15;35.65;;;;;;;5.10;51.12;102334.25;5056541;28;20498;-67
2021/12/16 05:47:14;;;;;;;83.35;61.05;;;;;;;4.96;51.39;102338.19;5061634;28;20407;-68
2021/12/16 05:49:45;;;;;;;78.47;56.67;;;;;;;4.97;51.27;102339.91;5057920;28;20479;-67
2021/12/16 05:52:14;;;;;;;77.78;55.70;;;;;;;4.99;51.38;102340.72;5054872;28;20420;-67
2021/12/16 05:54:41;;;;;;;68.97;49.60;;;;;;;5.07;51.28;102336.97;5056301;28;20774;-67
2021/12/16 05:57:08;;;;;;;112.00;90.63;;;;;;;5.10;51.22;102335.09;5062616;28;20518;-67
2021/12/16 05:59:38;;;;;;;49.90;37.03;;;;;;;5.12;51.08;102335.06;5061740;28;20909;-68
2021/12/16 06:02:05;;;;;;;51.40;38.20;;;;;;;5.17;51.07;102339.25;5056228;28;20911;-68
2021/12/16 06:04:33;;;;;;;62.03;53.45;;;;;;;5.22;50.97;102339.09;5060874;28;20421;-69
2021/12/16 06:07:00;;;;;;;52.03;41.85;;;;;;;5.24;50.98;102339.88;5058297;28;20436;-68
2021/12/16 06:09:28;;;;;;;52.25;40.38;;;;;;;5.59;50.25;102332.53;5063691;28;20407;-69
2021/12/16 06:11:56;;;;;;;41.90;28.33;;;;;;;6.11;49.20;102333.25;5063273;28;20410;-69
2021/12/16 06:14:27;;;;;;;57.22;46.08;;;;;;;6.37;48.72;102334.03;5062739;28;20478;-68
2021/12/16 06:28:06;;;;;;;42.72;31.55;;;;;;;8.93;43.30;102337.59;5060151;28;20406;-68
2021/12/16 06:30:36;;;;;;;37.57;28.40;;;;;;;9.80;41.38;102332.22;5061915;28;20451;-67
2021/12/16 06:33:04;;;;;;;34.92;26.60;;;;;;;11.09;38.61;102328.56;5064633;28;20403;-69
2021/12/16 06:35:31;;;;;;;42.25;25.85;;;;;;;13.16;35.13;102343.84;5062825;28;20513;-68
2021/12/16 06:37:58;;;;;;;35.58;28.23;;;;;;;15.16;31.46;102337.47;5062427;28;20411;-68
2021/12/16 06:40:27;;;;;;;30.35;24.70;;;;;;;16.73;28.90;102336.56;5061817;28;20497;-69
2021/12/16 06:42:56;;;;;;;28.52;22.48;;;;;;;18.13;26.65;102337.97;5065504;28;20482;-69
2021/12/16 06:45:28;;;;;;;31.63;23.45;;;;;;;19.19;25.30;102343.53;5068704;28;20434;-68
2021/12/16 06:47:59;;;;;;;30.73;24.02;;;;;;;20.58;23.38;102341.81;5066249;28;20410;-68
2021/12/16 06:50:37;;;;;;;32.60;24.50;;;;;;;21.65;22.12;102340.78;5067083;28;20464;-69
2021/12/16 06:53:06;;;;;;;25.52;21.27;;;;;;;22.57;20.80;102341.78;5064881;28;20418;-69
2021/12/16 06:55:40;;;;;;;23.52;20.20;;;;;;;23.27;20.09;102340.44;5065112;28;20423;-70
2021/12/16 06:58:17;;;;;;;24.90;22.27;;;;;;;24.16;19.36;102333.03;5050313;28;20416;-69
2021/12/16 07:00:47;;;;;;;27.95;23.55;;;;;;;24.89;18.51;102339.00;5051719;28;20444;-68
2021/12/16 07:03:20;;;;;;;25.17;21.80;;;;;;;25.87;17.56;102348.00;5051753;28;20935;-68
2021/12/16 07:05:52;;;;;;;31.15;22.98;;;;;;;26.80;16.55;102348.22;5052041;28;20416;-69
2021/12/16 07:08:20;;;;;;;35.28;23.05;;;;;;;27.28;16.02;102348.41;5052326;28;20417;-69
2021/12/16 07:10:52;;;;;;;30.02;21.70;;;;;;;28.35;15.47;102347.06;5066365;28;20485;-69
2021/12/16 07:13:29;;;;;;;34.42;26.13;;;;;;;28.74;14.93;102347.34;5064641;28;20411;-68
2021/12/16 07:15:57;;;;;;;35.70;24.00;;;;;;;28.96;14.67;102342.53;5066666;28;20919;-68
2021/12/16 07:18:24;;;;;;;29.80;23.97;;;;;;;29.34;14.18;102339.16;5051322;28;20970;-68
2021/12/16 07:20:51;;;;;;;28.92;22.52;;;;;;;30.50;13.41;102338.25;5051755;28;20413;-69
2021/12/16 07:23:18;;;;;;;32.70;25.67;;;;;;;31.04;12.87;102344.16;5051298;28;20409;-68
2021/12/16 07:25:45;;;;;;;30.58;24.27;;;;;;;32.02;12.16;102347.13;5050343;28;20496;-69
2021/12/16 07:28:14;;;;;;;27.58;24.67;;;;;;;31.95;12.35;102344.44;5051305;28;20412;-69
2021/12/16 07:30:44;;;;;;;35.00;24.50;;;;;;;33.00;11.77;102345.81;5044945;28;20405;-68
2021/12/16 07:33:12;;;;;;;38.30;31.27;;;;;;;33.37;11.34;102348.31;5051117;28;20463;-69
2021/12/16 07:35:40;;;;;;;27.38;24.10;;;;;;;33.85;11.00;102346.34;5051084;28;20424;-68
2021/12/16 07:38:08;;;;;;;32.43;25.40;;;;;;;34.32;10.47;102351.66;5051697;28;20501;-68
2021/12/16 07:40:36;;;;;;;36.72;29.80;;;;;;;34.86;10.59;102360.31;5051233;28;20427;-68
2021/12/16 07:45:52;;;;;;;31.02;27.65;;;;;;;35.64;9.83;102365.00;5053272;28;20865;-68
2021/12/16 07:48:20;;;;;;;31.73;27.83;;;;;;;35.51;9.92;102360.72;5064608;28;20852;-69
2021/12/16 07:50:50;;;;;;;36.15;32.05;;;;;;;35.81;9.83;102354.78;5065392;28;20409;-69
2021/12/16 07:53:17;;;;;;;51.03;41.20;;;;;;;36.56;9.41;102351.41;5063200;28;20503;-68
2021/12/16 07:55:46;;;;;;;38.00;31.80;;;;;;;37.40;8.52;102355.34;5066303;28;20429;-69
2021/12/16 07:58:13;;;;;;;33.33;29.77;;;;;;;36.89;9.21;102350.31;5067043;28;21007;-69
2021/12/16 08:00:40;;;;;;;27.13;24.20;;;;;;;37.02;8.99;102355.38;5064622;28;20503;-69
2021/12/16 08:03:12;;;;;;;22.27;19.92;;;;;;;37.52;8.38;102360.66;5063494;28;20421;-69
2021/12/16 08:05:43;;;;;;;27.15;24.33;;;;;;;38.30;8.50;102357.03;5064754;28;20428;-68
2021/12/16 08:08:11;;;;;;;23.47;21.10;;;;;;;38.96;8.05;102353.44;5064876;28;20399;-69
2021/12/16 08:10:38;;;;;;;48.75;39.15;;;;;;;38.78;7.78;102358.44;5064058;28;20487;-68
2021/12/16 08:13:05;;;;;;;27.50;22.08;;;;;;;38.94;7.47;102352.88;5066085;28;20923;-69
2021/12/16 08:15:33;;;;;;;28.80;25.83;;;;;;;39.58;7.32;102357.72;5065092;28;20409;-67
2021/12/16 08:18:00;;;;;;;35.05;31.48;;;;;;;38.79;8.09;102346.25;5064308;28;20419;-68
2021/12/16 08:20:28;;;;;;;23.25;20.88;;;;;;;38.36;8.06;102342.09;5063414;28;20420;-69
2021/12/16 08:22:56;;;;;;;26.02;23.42;;;;;;;38.43;8.22;102349.00;5065947;28;20401;-69
2021/12/16 08:25:25;;;;;;;27.98;25.00;;;;;;;38.80;7.48;102336.81;5064329;28;20910;-69
2021/12/16 08:27:52;;;;;;;22.27;20.17;;;;;;;38.44;8.07;102341.53;5064825;28;20903;-69
2021/12/16 08:30:23;;;;;;;20.60;18.50;;;;;;;38.79;7.42;102332.41;5053170;28;20495;-68
2021/12/16 08:32:50;;;;;;;22.95;20.50;;;;;;;38.79;7.89;102334.31;5050116;28;20875;-68
2021/12/16 08:35:17;;;;;;;31.98;28.80;;;;;;;39.13;7.70;102326.25;5050286;28;20487;-68
2021/12/16 08:37:46;;;;;;;22.27;20.08;;;;;;;39.37;7.18;102325.63;5050393;28;20492;-68
2021/12/16 08:40:20;;;;;;;19.75;17.70;;;;;;;39.18;7.33;102315.16;5081909;28;20952;-69
2021/12/16 08:42:47;;;;;;;18.48;16.67;;;;;;;40.28;7.01;102320.66;5050158;28;20404;-69
2021/12/16 08:45:20;;;;;;;18.05;16.35;;;;;;;39.94;7.19;102312.31;5049674;28;20436;-69
2021/12/16 08:47:48;;;;;;;20.00;18.10;;;;;;;39.99;6.85;102315.06;5049741;28;20910;-68
2021/12/16 08:50:17;;;;;;;23.00;20.63;;;;;;;39.78;7.50;102303.22;5049929;28;20417;-69
2021/12/16 08:52:46;;;;;;;17.38;15.73;;;;;;;40.02;7.12;102306.16;5050031;28;20492;-69
2021/12/16 08:55:13;;;;;;;21.15;18.40;;;;;;;39.47;7.27;102303.41;5049752;28;20495;-70
2021/12/16 08:57:40;;;;;;;21.03;18.83;;;;;;;39.66;7.18;102295.25;5049723;28;20484;-69
2021/12/16 09:00:10;;;;;;;23.90;21.40;;;;;;;38.69;7.83;102293.66;5049710;28;20491;-69
2021/12/16 09:02:37;;;;;;;18.67;16.88;;;;;;;37.92;7.88;102296.38;5049292;28;20419;-69
2021/12/16 09:05:06;;;;;;;20.70;18.60;;;;;;;35.35;9.66;102289.97;5053083;28;20450;-68
2021/12/16 09:07:33;;;;;;;18.50;16.70;;;;;;;36.61;8.91;102287.97;5058414;28;20411;-67
2021/12/16 09:10:02;;;;;;;20.52;16.77;;;;;;;35.33;9.84;102281.13;5055391;28;20412;-68
2021/12/16 09:12:51;;;;;;;21.40;17.52;;;;;;;31.00;11.98;102273.69;5044162;28;20908;-68
2021/12/16 09:15:20;;;;;;;17.63;15.70;;;;;;;30.43;12.71;102271.84;5060678;28;20954;-66
2021/12/16 09:17:47;;;;;;;17.23;15.40;;;;;;;28.48;13.69;102266.34;5055674;28;20507;-66
2021/12/16 09:20:15;;;;;;;19.98;17.02;;;;;;;28.15;14.27;102269.88;5068512;28;20403;-66
2021/12/16 09:22:42;;;;;;;17.13;15.20;;;;;;;26.93;15.28;102264.03;5069412;28;20421;-68
2021/12/16 09:25:10;;;;;;;18.58;15.73;;;;;;;28.16;14.46;102261.50;5069268;28;20980;-66
2021/12/16 09:27:37;;;;;;;16.50;14.80;;;;;;;28.48;14.48;102256.28;5069499;28;20406;-67
2021/12/16 09:30:07;;;;;;;18.00;15.77;;;;;;;29.13;14.08;102251.00;5069177;28;20497;-67
2021/12/16 09:32:34;;;;;;;18.13;16.23;;;;;;;29.10;13.97;102251.44;5069697;28;20411;-67
2021/12/16 09:35:01;;;;;;;20.85;15.18;;;;;;;28.47;14.17;102251.88;5069200;28;20415;-68
2021/12/16 09:37:29;;;;;;;17.30;15.50;;;;;;;27.57;15.10;102251.22;5069480;28;20442;-65
2021/12/16 09:39:56;;;;;;;20.27;16.60;;;;;;;25.74;16.53;102244.69;5069593;28;20407;-66
2021/12/16 09:42:26;;;;;;;20.67;17.50;;;;;;;24.36;17.47;102249.47;5069337;28;20403;-66
2021/12/16 09:44:54;;;;;;;23.63;21.00;;;;;;;22.27;19.27;102247.94;5069626;28;20460;-66
2021/12/16 09:47:23;;;;;;;23.08;20.50;;;;;;;20.63;21.16;102244.44;5069493;28;20427;-66
2021/12/16 09:49:50;;;;;;;20.42;18.00;;;;;;;18.98;23.12;102242.50;5069105;28;20921;-66
2021/12/16 09:52:18;;;;;;;25.02;19.75;;;;;;;18.15;24.40;102244.78;5068929;28;20777;-66
2021/12/16 09:54:46;;;;;;;22.63;17.70;;;;;;;17.17;25.56;102234.72;5068820;28;20589;-66
2021/12/16 09:57:15;;;;;;;27.05;17.90;;;;;;;16.25;27.52;102242.50;5069010;28;20490;-68
2021/12/16 09:59:44;;;;;;;18.73;15.68;;;;;;;15.71;28.15;102238.81;5069320;28;20490;-68
2021/12/16 10:02:13;;;;;;;22.47;16.10;;;;;;;15.07;29.22;102240.28;5069037;28;20515;-66
2021/12/16 10:04:41;;;;;;;20.75;15.82;;;;;;;14.50;30.42;102235.75;5068979;28;20413;-67
2021/12/16 10:07:13;;;;;;;43.17;29.45;;;;;;;14.49;30.33;102234.88;5067513;28;20553;-67
2021/12/16 10:09:40;;;;;;;20.88;14.60;;;;;;;14.02;30.78;102236.59;5067957;28;20417;-66
2021/12/16 10:12:13;;;;;;;21.90;16.05;;;;;;;13.98;31.28;102232.47;5068845;28;20992;-65
2021/12/16 10:17:36;;;;;;;25.80;16.73;;;;;;;13.36;32.77;102226.22;5048384;28;20955;-67
2021/12/16 10:20:10;;;;;;;21.90;15.93;;;;;;;13.32;33.05;102224.75;5072865;28;20852;-67
2021/12/16 10:22:41;;;;;;;29.63;19.55;;;;;;;13.05;33.48;102221.31;5072884;28;20489;-68
2021/12/16 10:25:28;;;;;;;21.70;15.55;;;;;;;12.82;33.88;102224.59;5072950;28;20411;-66
2021/12/16 10:27:59;;;;;;;25.17;19.87;;;;;;;12.70;34.01;102222.78;5073049;28;20489;-66
2021/12/16 10:30:37;;;;;;;40.20;31.33;;;;;;;12.88;33.81;102227.81;5073011;28;20403;-66
2021/12/16 10:33:14;;;;;;;21.30;16.70;;;;;;;12.63;34.17;102216.16;5072621;28;20406;-66
2021/12/16 10:35:47;;;;;;;21.77;16.15;;;;;;;12.90;34.17;102224.06;5072895;28;20425;-66
2021/12/16 10:38:16;;;;;;;26.40;20.77;;;;;;;13.06;34.11;102209.69;5072219;28;20415;-66
2021/12/16 10:40:46;;;;;;;31.98;21.00;;;;;;;13.52;33.20;102215.31;5072689;28;20489;-66
2021/12/16 10:43:15;;;;;;;34.20;23.98;;;;;;;12.94;33.88;102222.06;5072392;28;20842;-67
2021/12/16 10:45:48;;;;;;;74.70;42.27;;;;;;;12.68;34.58;102222.03;5073021;28;20481;-67
2021/12/16 10:48:26;;;;;;;40.60;27.05;;;;;;;12.68;34.48;102210.53;5072741;28;20494;-66
2021/12/16 10:50:59;;;;;;;44.38;32.70;;;;;;;12.84;34.00;102213.84;5071920;28;20489;-66
2021/12/16 10:53:50;;;;;;;38.20;28.27;;;;;;;12.87;33.97;102197.66;5072200;28;20437;-66
2021/12/16 10:56:19;;;;;;;41.20;31.05;;;;;;;12.60;34.42;102189.78;5071954;28;20749;-66
2021/12/16 10:58:51;;;;;;;36.33;26.40;;;;;;;12.25;34.88;102193.00;5072298;28;20411;-66
2021/12/16 11:01:45;;;;;;;21.05;15.05;;;;;;;11.95;35.22;102195.88;5072256;28;20413;-66
2021/12/16 11:04:19;;;;;;;22.73;17.25;;;;;;;11.92;35.88;102196.06;5072034;28;20449;-67
2021/12/16 11:06:49;;;;;;;62.10;45.50;;;;;;;12.26;35.40;102194.69;5071826;28;20788;-67
2021/12/16 11:09:34;;;;;;;20.50;15.15;;;;;;;12.29;35.24;102188.34;5071685;28;20411;-67
2021/12/16 11:12:19;;;;;;;21.23;14.85;;;;;;;12.25;34.97;102193.00;5072227;28;20486;-67
2021/12/16 11:14:48;;;;;;;19.55;15.52;;;;;;;12.34;35.37;102188.88;5071793;28;20967;-66
2021/12/16 11:17:18;;;;;;;24.75;20.77;;;;;;;12.22;35.29;102185.22;5071578;28;20815;-68
2021/12/16 11:19:53;;;;;;;21.75;16.13;;;;;;;12.36;35.00;102184.31;5071427;28;20407;-68
2021/12/16 11:22:23;;;;;;;21.63;16.23;;;;;;;12.52;34.79;102170.84;5071366;28;20417;-66
2021/12/16 11:24:52;;;;;;;21.52;17.52;;;;;;;12.81;34.54;102172.38;5071459;28;20406;-65
2021/12/16 11:27:22;;;;;;;20.53;14.00;;;;;;;13.30;33.70;102181.41;5070740;28;20943;-68
2021/12/16 11:29:49;;;;;;;16.03;12.17;;;;;;;13.47;33.18;102182.03;5071869;28;20478;-66
2021/12/16 11:32:38;;;;;;;21.38;16.08;;;;;;;14.13;32.26;102180.72;5071530;28;20904;-65
2021/12/16 11:35:38;;;;;;;22.45;18.50;;;;;;;14.26;31.89;102169.13;5071425;28;20912;-67
2021/12/16 11:38:13;;;;;;;18.73;14.35;;;;;;;14.13;31.82;102167.38;5071412;28;20851;-66
2021/12/16 11:41:12;;;;;;;23.45;17.75;;;;;;;13.99;32.58;102164.88;5071217;28;20409;-66
2021/12/16 11:43:52;;;;;;;26.17;17.23;;;;;;;14.11;32.39;102168.44;5071012;28;20493;-66
2021/12/16 11:46:23;;;;;;;23.55;16.08;;;;;;;14.07;32.21;102159.84;5070348;28;20434;-66
2021/12/16 11:48:54;;;;;;;22.90;17.55;;;;;;;13.88;32.42;102152.34;5069611;28;20850;-67
2021/12/16 11:51:28;;;;;;;19.27;15.50;;;;;;;13.73;32.89;102148.19;5071657;28;20513;-67
2021/12/16 11:54:00;;;;;;;22.65;16.58;;;;;;;13.67;33.09;102152.13;5071048;28;20489;-66
2021/12/16 11:56:37;;;;;;;23.73;18.73;;;;;;;13.46;33.70;102137.72;5071403;28;20407;-67
2021/12/16 11:59:06;;;;;;;23.35;18.63;;;;;;;13.35;33.63;102142.00;5071046;28;20407;-67
2021/12/16 12:01:34;;;;;;;18.48;15.25;;;;;;;12.70;34.77;102143.00;5070979;28;20407;-66
2021/12/16 12:04:02;;;;;;;23.42;19.08;;;;;;;12.89;34.48;102139.91;5069970;28;21318;-68
2021/12/16 12:06:34;;;;;;;22.77;18.75;;;;;;;12.54;35.12;102145.84;5070738;28;20916;-66
2021/12/16 12:09:02;;;;;;;22.88;16.63;;;;;;;12.61;35.14;102132.97;5070808;28;20498;-66
2021/12/16 12:11:32;;;;;;;25.80;17.90;;;;;;;12.53;35.56;102128.22;5069946;28;20417;-66
2021/12/16 12:14:02;;;;;;;45.28;25.30;;;;;;;12.73;35.58;102134.81;5071051;28;20446;-66
2021/12/16 12:16:35;;;;;;;33.03;20.45;;;;;;;12.52;35.68;102126.50;5070607;28;20472;-67
2021/12/16 12:19:10;;;;;;;26.35;18.70;;;;;;;12.26;35.83;102136.25;5069613;28;20430;-67
2021/12/16 12:21:40;;;;;;;22.95;17.10;;;;;;;12.37;35.71;102130.22;5070575;28;20915;-65
2021/12/16 12:24:12;;;;;;;24.33;17.02;;;;;;;12.16;35.99;102130.69;5070837;28;20487;-66
2021/12/16 12:26:43;;;;;;;22.40;17.65;;;;;;;12.13;36.22;102133.56;5070689;28;20422;-66
2021/12/16 12:29:12;;;;;;;20.40;15.82;;;;;;;12.00;36.46;102124.69;5070388;28;20497;-66
2021/12/16 12:31:44;;;;;;;24.95;17.40;;;;;;;12.01;36.96;102127.25;5069903;28;20491;-67
2021/12/16 12:34:13;;;;;;;23.90;17.00;;;;;;;11.92;36.97;102121.69;5070219;28;20438;-68
2021/12/16 12:36:42;;;;;;;28.40;16.48;;;;;;;11.50;37.42;102127.03;5070129;28;20464;-68
2021/12/16 12:39:12;;;;;;;21.02;16.45;;;;;;;11.46;37.61;102128.19;5067178;28;20988;-66
2021/12/16 12:41:39;;;;;;;22.02;16.63;;;;;;;11.47;37.59;102121.91;5068990;28;20605;-65
2021/12/16 12:44:07;;;;;;;24.63;18.93;;;;;;;11.52;37.54;102125.13;5069558;28;20403;-67
2021/12/16 12:46:38;;;;;;;24.30;19.05;;;;;;;11.58;37.69;102130.03;5070389;28;20465;-67
2021/12/16 12:49:08;;;;;;;24.13;18.70;;;;;;;11.63;37.85;102137.69;5069767;28;20419;-67
2021/12/16 12:51:39;;;;;;;29.30;19.85;;;;;;;11.66;37.88;102136.66;5070230;28;20490;-68
2021/12/16 12:54:23;;;;;;;26.80;19.38;;;;;;;11.74;37.66;102135.22;5070148;28;20407;-67
2021/12/16 12:56:52;;;;;;;50.22;26.95;;;;;;;11.72;37.75;102130.94;5070402;28;20414;-68
2021/12/16 12:59:20;;;;;;;30.52;21.98;;;;;;;11.54;37.90;102139.16;5070042;28;20407;-67
2021/12/16 13:01:51;;;;;;;28.58;21.63;;;;;;;11.45;38.17;102138.88;5069431;28;20885;-67
2021/12/16 13:04:23;;;;;;;23.75;18.63;;;;;;;11.34;38.35;102137.78;5069765;28;20449;-68
2021/12/16 13:07:00;;;;;;;24.27;17.15;;;;;;;11.23;38.52;102130.50;5069535;28;20501;-67
2021/12/16 13:09:34;;;;;;;24.75;17.30;;;;;;;11.30;38.75;102133.63;5068508;28;20493;-67
2021/12/16 13:12:03;;;;;;;23.02;16.85;;;;;;;11.14;38.96;102125.75;5069416;28;20955;-67
2021/12/16 13:14:48;;;;;;;25.38;17.95;;;;;;;11.21;39.14;102134.19;5069430;28;20398;-68
2021/12/16 13:23:20;;;;;;;21.50;17.13;;;;;;;11.11;38.99;102133.06;5069519;28;20407;-68
2021/12/16 13:23:42;;;;;;;20.93;14.70;;;;;;;10.98;39.28;102125.84;5068598;28;20434;-68
2021/12/16 13:26:35;;;;;;;23.90;15.48;;;;;;;11.14;39.35;102123.09;5069267;28;20434;-67
2021/12/16 13:29:09;;;;;;;21.13;15.80;;;;;;;11.06;39.62;102128.03;5069219;28;20443;-67
2021/12/16 13:31:52;;;;;;;22.27;16.27;;;;;;;11.08;39.52;102122.66;5069383;28;20414;-67
2021/12/16 13:34:29;;;;;;;22.07;16.90;;;;;;;11.04;39.43;102124.63;5069373;28;20414;-67
2021/12/16 13:37:02;;;;;;;23.70;17.77;;;;;;;11.09;39.43;102121.69;5069184;28;20930;-68
2021/12/16 13:39:30;;;;;;;27.70;19.30;;;;;;;11.06;39.68;102127.19;5068924;28;20418;-67
2021/12/16 13:42:04;;;;;;;24.23;17.77;;;;;;;11.11;39.33;102130.41;5069446;28;20481;-67